Ottoman Nobility — TCDA2 — position and weather

sailwx.info

Track history (hours):
 
Tides and Currents Weather Stations Pressure Air Temp Water Temp Dewpoint Dewpoint Depression Visibility Wind Speed Wind Dir Waves Ship Positions

Ottoman Nobility

Last reported at 2015-Mar-29 15:04 UTC. Time now 2015-Mar-29 23:49 UTC.
Position N 43°33' E 034°36'.

Length 269 m; draft 8.4 m.

Type: Ship. MMSI: 271000773.

Date/timePositionNaut miles runAvg speedWind from/ knotsBaromVisibWave heightAir tempDewpointWater temp
2015-Mar-29 15:04N 43°33' E 034°36'811.6
2015-Mar-29 14:23N 43°30' E 034°26'26911.8
2015-Mar-28 15:33N 41°16' E 029°10'1711.4
2015-Mar-28 14:06N 41°01' E 028°60'5 9.0
2015-Mar-28 13:33N 40°56' E 028°59'9 9.1
2015-Mar-28 12:31N 40°49' E 028°51'1 1.4
2015-Mar-28 11:33N 40°48' E 028°50'0 0.2
2015-Mar-28 10:29N 40°48' E 028°50'0 0.4
2015-Mar-28 09:33N 40°48' E 028°50'0 0.1
2015-Mar-28 08:33N 40°48' E 028°49'0 0.3
2015-Mar-28 07:31N 40°47' E 028°50'0 0.5
2015-Mar-28 06:30N 40°47' E 028°50'1 0.6
2015-Mar-28 05:31N 40°46' E 028°50'0 0.5
2015-Mar-28 04:33N 40°46' E 028°50'1 0.5
2015-Mar-28 03:32N 40°46' E 028°49'1 0.8
2015-Mar-28 02:28N 40°46' E 028°48'1 1.4
2015-Mar-28 01:31N 40°47' E 028°47'3 2.6
2015-Mar-28 00:16N 40°50' E 028°50'0 0.4
2015-Mar-27 23:33N 40°50' E 028°49'0 0.3
2015-Mar-27 22:31N 40°49' E 028°49'0 0.1
2015-Mar-27 21:30N 40°49' E 028°49'5 4.9
2015-Mar-27 20:30N 40°45' E 028°53'1 1.0
2015-Mar-27 19:31N 40°46' E 028°53'1 1.0
2015-Mar-27 18:32N 40°47' E 028°54'1 1.0
2015-Mar-27 17:32N 40°48' E 028°54'1 0.9
2015-Mar-27 16:30N 40°49' E 028°55'2 2.1
2015-Mar-27 15:33N 40°47' E 028°54'6 6.1
2015-Mar-27 14:33N 40°42' E 028°49'1 1.4
2015-Mar-27 13:32N 40°43' E 028°50'1 1.2
2015-Mar-27 12:33N 40°44' E 028°51'1 1.3
2015-Mar-27 11:30N 40°45' E 028°52'1 1.1
2015-Mar-27 10:33N 40°46' E 028°53'1 1.1
2015-Mar-27 09:33N 40°47' E 028°53'1 1.0
2015-Mar-27 08:32N 40°48' E 028°53'1 1.4
2015-Mar-27 07:33N 40°50' E 028°53'5 5.5
2015-Mar-27 06:33N 40°46' E 028°48'  
2015-Mar-22 08:33N 36°34' E 026°39'  
Track history (hours):
 
Tides and Currents Weather Stations Pressure Air Temp Water Temp Dewpoint Dewpoint Depression Visibility Wind Speed Wind Dir Waves Ship Positions

Ottoman Nobility

Last reported at 2015-Mar-29 15:04 UTC. Time now 2015-Mar-29 23:49 UTC.
Position N 43°33' E 034°36'.

Length 269 m; draft 8.4 m.

Type: Ship. MMSI: 271000773.

Date/timePositionNaut miles runAvg speedWind from/ knotsBaromVisibWave heightAir tempDewpointWater temp
2015-Mar-29 15:04N 43°33' E 034°36'811.6
2015-Mar-29 14:23N 43°30' E 034°26'26911.8
2015-Mar-28 15:33N 41°16' E 029°10'1711.4
2015-Mar-28 14:06N 41°01' E 028°60'5 9.0
2015-Mar-28 13:33N 40°56' E 028°59'9 9.1
2015-Mar-28 12:31N 40°49' E 028°51'1 1.4
2015-Mar-28 11:33N 40°48' E 028°50'0 0.2
2015-Mar-28 10:29N 40°48' E 028°50'0 0.4
2015-Mar-28 09:33N 40°48' E 028°50'0 0.1
2015-Mar-28 08:33N 40°48' E 028°49'0 0.3
2015-Mar-28 07:31N 40°47' E 028°50'0 0.5
2015-Mar-28 06:30N 40°47' E 028°50'1 0.6
2015-Mar-28 05:31N 40°46' E 028°50'0 0.5
2015-Mar-28 04:33N 40°46' E 028°50'1 0.5
2015-Mar-28 03:32N 40°46' E 028°49'1 0.8
2015-Mar-28 02:28N 40°46' E 028°48'1 1.4
2015-Mar-28 01:31N 40°47' E 028°47'3 2.6
2015-Mar-28 00:16N 40°50' E 028°50'0 0.4
2015-Mar-27 23:33N 40°50' E 028°49'0 0.3
2015-Mar-27 22:31N 40°49' E 028°49'0 0.1
2015-Mar-27 21:30N 40°49' E 028°49'5 4.9
2015-Mar-27 20:30N 40°45' E 028°53'1 1.0
2015-Mar-27 19:31N 40°46' E 028°53'1 1.0
2015-Mar-27 18:32N 40°47' E 028°54'1 1.0
2015-Mar-27 17:32N 40°48' E 028°54'1 0.9
2015-Mar-27 16:30N 40°49' E 028°55'2 2.1
2015-Mar-27 15:33N 40°47' E 028°54'6 6.1
2015-Mar-27 14:33N 40°42' E 028°49'1 1.4
2015-Mar-27 13:32N 40°43' E 028°50'1 1.2
2015-Mar-27 12:33N 40°44' E 028°51'1 1.3
2015-Mar-27 11:30N 40°45' E 028°52'1 1.1
2015-Mar-27 10:33N 40°46' E 028°53'1 1.1
2015-Mar-27 09:33N 40°47' E 028°53'1 1.0
2015-Mar-27 08:32N 40°48' E 028°53'1 1.4
2015-Mar-27 07:33N 40°50' E 028°53'5 5.5
2015-Mar-27 06:33N 40°46' E 028°48'  
2015-Mar-22 08:33N 36°34' E 026°39'  

Dump ship's entire track history